createdAt,value
2023-02-15T00:02:25.724Z,14.38
2023-02-15T00:05:30.361Z,15.98
2023-02-15T00:08:34.613Z,14.05
2023-02-15T00:11:43.827Z,14.35
2023-02-15T00:14:46.741Z,16.40
2023-02-15T00:17:49.538Z,13.63
2023-02-15T00:20:52.435Z,12.50
2023-02-15T00:23:56.645Z,13.13
2023-02-15T00:26:59.754Z,14.63
2023-02-15T00:30:02.721Z,11.95
2023-02-15T00:33:06.375Z,11.25
2023-02-15T00:36:14.042Z,11.45
2023-02-15T00:39:19.552Z,13.25
2023-02-15T00:42:22.390Z,13.35
2023-02-15T00:45:25.248Z,16.08
2023-02-15T00:48:28.718Z,11.63
2023-02-15T00:51:31.562Z,13.48
2023-02-15T00:54:36.624Z,12.52
2023-02-15T00:57:40.173Z,13.55
2023-02-15T01:00:45.532Z,12.63
2023-02-15T01:03:48.859Z,13.82
2023-02-15T01:06:51.794Z,12.07
2023-02-15T01:09:56.018Z,13.52
2023-02-15T01:12:59.254Z,12.63
2023-02-15T01:16:03.812Z,11.00
2023-02-15T01:19:07.148Z,12.77
2023-02-15T01:22:10.116Z,13.45
2023-02-15T01:25:14.388Z,13.13
2023-02-15T01:28:17.349Z,11.65
2023-02-15T01:31:22.422Z,9.57
2023-02-15T01:34:25.340Z,11.38
2023-02-15T01:37:28.171Z,11.43
2023-02-15T01:40:32.323Z,10.57
2023-02-15T01:43:42.587Z,11.18
2023-02-15T01:46:55.370Z,9.85
2023-02-15T01:50:06.691Z,9.23
2023-02-15T01:53:15.872Z,10.07
2023-02-15T01:56:23.682Z,10.15
2023-02-15T01:59:27.717Z,10.00
2023-02-15T02:02:31.454Z,9.43
2023-02-15T02:05:35.135Z,10.18
2023-02-15T02:08:38.132Z,10.60
2023-02-15T02:11:43.282Z,9.23
2023-02-15T02:14:50.382Z,10.90
2023-02-15T02:18:05.986Z,9.60
2023-02-15T02:21:46.411Z,8.43
2023-02-15T02:25:14.369Z,9.43
2023-02-15T02:28:44.075Z,10.88
2023-02-15T02:32:09.175Z,9.55
2023-02-15T02:35:20.994Z,8.85
2023-02-15T02:38:30.387Z,10.15
2023-02-15T02:41:41.252Z,9.98
2023-02-15T02:44:45.939Z,8.98
2023-02-15T02:47:52.339Z,8.20
2023-02-15T02:50:56.598Z,8.40
2023-02-15T02:54:03.230Z,9.27
2023-02-15T02:57:10.108Z,8.65
2023-02-15T03:00:16.724Z,10.07
2023-02-15T03:03:26.732Z,9.27
2023-02-15T03:06:37.721Z,9.15
2023-02-15T03:09:44.490Z,9.75
2023-02-15T03:12:51.322Z,10.05
2023-02-15T03:16:12.149Z,8.88
2023-02-15T03:19:18.502Z,9.32
2023-02-15T03:22:27.839Z,7.90
2023-02-15T03:25:36.042Z,10.60
2023-02-15T03:28:44.910Z,7.75
2023-02-15T03:31:55.843Z,8.48
2023-02-15T03:34:59.417Z,7.20
2023-02-15T03:38:08.531Z,11.23
2023-02-15T03:41:13.661Z,8.38
2023-02-15T03:44:22.036Z,9.63
2023-02-15T03:47:29.465Z,8.52
2023-02-15T03:50:53.979Z,7.30
2023-02-15T03:53:59.828Z,7.15
2023-02-15T03:57:17.102Z,8.02
2023-02-15T04:00:41.359Z,7.28
2023-02-15T04:03:47.440Z,6.65
2023-02-15T04:06:50.385Z,6.75
2023-02-15T04:10:11.870Z,6.03
2023-02-15T04:13:14.848Z,7.85
2023-02-15T04:16:16.725Z,7.85
2023-02-15T04:19:37.584Z,6.85
2023-02-15T04:22:58.127Z,7.18
2023-02-15T04:26:05.566Z,7.15
2023-02-15T04:29:08.539Z,8.10
2023-02-15T04:32:11.483Z,6.93
2023-02-15T04:35:14.707Z,6.68
2023-02-15T04:38:17.616Z,7.63
2023-02-15T04:41:21.863Z,6.10
2023-02-15T04:44:24.696Z,6.75
2023-02-15T04:47:27.761Z,6.93
2023-02-15T04:50:30.637Z,7.78
2023-02-15T04:53:33.828Z,7.47
2023-02-15T04:56:38.781Z,7.18
2023-02-15T04:59:41.680Z,6.13
2023-02-15T05:02:44.471Z,6.63
2023-02-15T05:05:47.384Z,8.40
2023-02-15T05:08:50.261Z,6.88
2023-02-15T05:11:54.500Z,7.75
2023-02-15T05:14:57.445Z,7.45
2023-02-15T05:18:00.300Z,6.10
2023-02-15T05:21:03.232Z,6.47
2023-02-15T05:24:26.524Z,6.65
2023-02-15T05:27:48.308Z,6.95
2023-02-15T05:30:52.961Z,7.70
2023-02-15T05:33:55.890Z,6.45
2023-02-15T05:36:58.732Z,6.22
2023-02-15T05:40:01.565Z,6.97
2023-02-15T05:43:05.781Z,6.45
2023-02-15T05:46:09.164Z,6.10
2023-02-15T05:49:12.036Z,6.63
2023-02-15T05:52:14.834Z,7.20
2023-02-15T05:55:17.887Z,7.13
2023-02-15T05:58:22.122Z,7.20
2023-02-15T06:01:25.137Z,6.93
2023-02-15T06:04:27.940Z,6.30
2023-02-15T06:07:30.869Z,6.68
2023-02-15T06:10:33.680Z,6.43
2023-02-15T06:13:38.899Z,6.28
2023-02-15T06:16:41.911Z,7.90
2023-02-15T06:19:44.991Z,6.35
2023-02-15T06:22:48.400Z,6.90
2023-02-15T06:25:51.298Z,6.60
2023-02-15T06:28:55.529Z,8.95
2023-02-15T06:31:58.421Z,6.75
2023-02-15T06:35:01.280Z,6.93
2023-02-15T06:38:05.577Z,6.82
2023-02-15T06:41:08.493Z,6.18
2023-02-15T06:44:12.804Z,7.68
2023-02-15T06:47:15.693Z,6.93
2023-02-15T06:50:18.657Z,6.35
2023-02-15T06:53:21.499Z,6.93
2023-02-15T06:56:24.728Z,7.45
2023-02-15T06:59:29.038Z,7.07
2023-02-15T07:02:32.225Z,7.65
2023-02-15T07:05:36.182Z,6.28
2023-02-15T07:08:40.533Z,6.35
2023-02-15T07:12:15.419Z,6.88
2023-02-15T07:15:22.652Z,8.45
2023-02-15T07:18:25.507Z,13.52
2023-02-15T07:21:28.576Z,13.30
2023-02-15T07:24:31.455Z,12.30
2023-02-15T07:27:34.429Z,13.63
2023-02-15T07:30:38.683Z,13.85
2023-02-15T07:33:42.145Z,15.30
2023-02-15T07:36:46.660Z,17.85
2023-02-15T07:39:49.970Z,16.92
2023-02-15T07:42:55.574Z,16.95
2023-02-15T07:46:02.857Z,18.33
2023-02-15T07:49:06.029Z,15.60
2023-02-15T07:52:08.894Z,22.00
2023-02-15T07:55:13.783Z,13.98
2023-02-15T07:58:17.150Z,14.68
2023-02-15T08:01:23.157Z,14.20
2023-02-15T08:04:26.626Z,16.30
2023-02-15T08:07:29.486Z,12.45
2023-02-15T08:10:46.539Z,14.65
2023-02-15T08:13:59.917Z,12.02
2023-02-15T08:17:05.930Z,21.38
2023-02-15T08:20:09.691Z,15.27
2023-02-15T08:23:12.510Z,26.38
2023-02-15T08:26:15.702Z,19.65
2023-02-15T08:29:22.242Z,18.33
2023-02-15T08:32:26.634Z,31.52
2023-02-15T08:35:29.650Z,34.40
2023-02-15T08:38:33.616Z,24.45
2023-02-15T08:41:38.400Z,21.73
2023-02-15T08:44:41.257Z,20.15
2023-02-15T08:47:45.582Z,21.83
2023-02-15T08:50:48.506Z,15.13
2023-02-15T08:53:53.115Z,22.50
2023-02-15T08:56:56.077Z,16.92
2023-02-15T08:59:58.969Z,19.25
2023-02-15T09:03:03.241Z,20.88
2023-02-15T09:06:06.902Z,16.80
2023-02-15T09:09:10.311Z,21.02
2023-02-15T09:12:13.227Z,14.23
2023-02-15T09:15:16.131Z,14.77
2023-02-15T09:18:20.480Z,19.30
2023-02-15T09:21:25.049Z,16.08
2023-02-15T09:24:27.965Z,13.38
2023-02-15T09:27:31.698Z,16.80
2023-02-15T09:30:35.627Z,14.63
2023-02-15T09:33:41.138Z,14.52
2023-02-15T09:36:44.163Z,15.93
2023-02-15T09:39:49.071Z,11.60
2023-02-15T09:43:16.648Z,15.57
2023-02-15T09:46:35.092Z,13.38
2023-02-15T09:49:48.852Z,13.45
2023-02-15T09:53:07.670Z,14.85
2023-02-15T09:56:21.314Z,14.80
2023-02-15T09:59:35.508Z,15.02
2023-02-15T10:02:51.317Z,12.02
2023-02-15T10:06:16.704Z,12.38
2023-02-15T10:09:32.885Z,17.48
2023-02-15T10:12:49.243Z,12.93
2023-02-15T10:16:02.991Z,14.20
2023-02-15T10:19:16.956Z,15.48
2023-02-15T10:22:32.779Z,13.13
2023-02-15T10:25:45.284Z,12.40
2023-02-15T10:28:51.197Z,14.30
2023-02-15T10:32:01.620Z,13.45
2023-02-15T10:35:18.017Z,15.30
2023-02-15T10:38:33.210Z,14.38
2023-02-15T10:41:47.130Z,11.13
2023-02-15T10:45:09.432Z,14.25
2023-02-15T10:48:24.691Z,11.52
2023-02-15T10:51:37.098Z,15.02
2023-02-15T10:54:50.970Z,13.40
2023-02-15T10:58:04.347Z,12.70
2023-02-15T11:01:15.839Z,15.27
2023-02-15T11:04:53.188Z,13.65
2023-02-15T11:08:00.401Z,13.82
2023-02-15T11:11:07.852Z,13.55
2023-02-15T11:14:16.706Z,12.18
2023-02-15T11:17:23.161Z,12.07
2023-02-15T11:20:32.437Z,14.75
2023-02-15T11:23:37.482Z,10.60
2023-02-15T11:26:45.881Z,13.88
2023-02-15T11:29:59.313Z,10.60
2023-02-15T11:33:07.640Z,10.45
2023-02-15T11:36:18.786Z,14.80
2023-02-15T11:39:24.147Z,12.50
2023-02-15T11:42:32.241Z,10.85
2023-02-15T11:45:36.730Z,11.68
2023-02-15T11:48:40.168Z,10.73
2023-02-15T11:51:42.989Z,13.05
2023-02-15T11:54:48.626Z,10.35
2023-02-15T11:57:58.587Z,9.90
2023-02-15T12:01:09.919Z,10.88
2023-02-15T12:04:22.716Z,10.95
2023-02-15T12:07:29.424Z,12.20
2023-02-15T12:10:38.075Z,11.43
2023-02-15T12:13:56.352Z,14.18
2023-02-15T12:16:59.220Z,12.40
2023-02-15T12:20:04.803Z,12.85
2023-02-15T12:23:14.797Z,12.23
2023-02-15T12:26:26.034Z,11.77
2023-02-15T12:29:36.572Z,11.63
2023-02-15T12:32:52.700Z,13.50
2023-02-15T12:36:01.856Z,15.25
2023-02-15T12:39:08.087Z,13.23
2023-02-15T12:42:18.200Z,12.95
2023-02-15T12:45:26.308Z,12.88
2023-02-15T12:48:29.237Z,12.98
2023-02-15T12:51:33.348Z,12.93
2023-02-15T12:54:41.510Z,13.25
2023-02-15T12:57:46.939Z,13.35
2023-02-15T13:01:05.411Z,12.85
2023-02-15T13:04:20.988Z,13.23
2023-02-15T13:07:25.531Z,15.18
2023-02-15T13:10:30.942Z,13.68
2023-02-15T13:13:36.128Z,12.80
2023-02-15T13:16:41.702Z,13.93
2023-02-15T13:19:47.144Z,13.80
2023-02-15T13:22:51.165Z,17.55
2023-02-15T13:25:54.476Z,13.40
2023-02-15T13:29:00.056Z,13.40
2023-02-15T13:32:14.703Z,12.82
2023-02-15T13:35:19.798Z,13.07
2023-02-15T13:38:44.947Z,17.20
2023-02-15T13:41:58.829Z,14.68
2023-02-15T13:45:16.823Z,13.85
2023-02-15T13:48:45.796Z,13.93
2023-02-15T13:51:59.419Z,15.43
2023-02-15T13:55:29.293Z,15.30
2023-02-15T13:59:00.170Z,12.93
2023-02-15T14:02:22.883Z,13.70
2023-02-15T14:05:46.525Z,14.10
2023-02-15T14:09:01.409Z,15.60
2023-02-15T14:12:20.751Z,14.30
2023-02-15T14:15:33.059Z,15.45
2023-02-15T14:18:42.319Z,14.85
2023-02-15T14:21:53.357Z,16.42
2023-02-15T14:25:11.256Z,15.98
2023-02-15T14:28:19.368Z,15.15
2023-02-15T14:31:35.432Z,17.17
2023-02-15T14:34:46.435Z,13.77
2023-02-15T14:37:57.408Z,15.63
2023-02-15T14:41:08.606Z,14.57
2023-02-15T14:44:17.879Z,15.13
2023-02-15T14:47:27.132Z,14.45
2023-02-15T14:50:48.616Z,14.73
2023-02-15T14:53:52.828Z,16.08
2023-02-15T14:57:24.583Z,14.93
2023-02-15T15:00:40.788Z,15.00
2023-02-15T15:03:55.476Z,15.45
2023-02-15T15:07:17.005Z,14.05
2023-02-15T15:10:43.466Z,14.50
2023-02-15T15:13:57.788Z,22.27
2023-02-15T15:17:01.707Z,15.25
2023-02-15T15:20:10.418Z,13.60
2023-02-15T15:23:46.906Z,14.43
2023-02-15T15:27:11.140Z,15.48
2023-02-15T15:30:51.374Z,14.63
2023-02-15T15:34:42.484Z,15.02
2023-02-15T15:38:07.264Z,16.60
2023-02-15T15:41:20.719Z,14.85
2023-02-15T15:45:02.948Z,16.58
2023-02-15T15:48:29.038Z,15.30
2023-02-15T15:51:34.212Z,14.63
2023-02-15T15:54:42.109Z,12.52
2023-02-15T15:57:49.773Z,14.52
2023-02-15T16:00:57.585Z,14.50
2023-02-15T16:04:01.711Z,15.50
2023-02-15T16:07:22.461Z,14.82
2023-02-15T16:10:28.300Z,13.48
2023-02-15T16:13:31.149Z,15.77
2023-02-15T16:16:35.438Z,15.02
2023-02-15T16:19:41.255Z,14.88
2023-02-15T16:22:44.287Z,13.77
2023-02-15T16:25:57.233Z,13.73
2023-02-15T16:29:02.350Z,14.98
2023-02-15T16:32:18.176Z,15.75
2023-02-15T16:35:23.594Z,16.45
2023-02-15T16:39:03.909Z,14.48
2023-02-15T16:42:06.790Z,14.52
2023-02-15T16:45:15.858Z,14.80
2023-02-15T16:48:25.585Z,14.70
2023-02-15T16:51:31.689Z,14.68
2023-02-15T16:54:36.345Z,14.57
2023-02-15T16:57:40.273Z,14.63
2023-02-15T17:00:43.752Z,15.65
2023-02-15T17:03:50.550Z,13.63
2023-02-15T17:07:01.479Z,14.82
2023-02-15T17:10:04.775Z,13.25
2023-02-15T17:13:12.736Z,13.15
2023-02-15T17:16:29.612Z,14.57
2023-02-15T17:19:42.593Z,15.10
2023-02-15T17:22:45.562Z,15.45
2023-02-15T17:25:49.487Z,13.80
2023-02-15T17:28:54.568Z,15.15
2023-02-15T17:31:59.539Z,14.02
2023-02-15T17:35:26.095Z,13.98
2023-02-15T17:38:28.908Z,14.45
2023-02-15T17:41:33.720Z,15.75
2023-02-15T17:44:36.560Z,14.18
2023-02-15T17:47:40.544Z,15.07
2023-02-15T17:50:44.830Z,13.88
2023-02-15T17:54:02.285Z,14.52
2023-02-15T17:57:10.403Z,15.30
2023-02-15T18:00:33.867Z,14.90
2023-02-15T18:04:00.917Z,15.65
2023-02-15T18:07:22.801Z,15.48
2023-02-15T18:10:43.077Z,16.30
2023-02-15T18:13:45.914Z,15.13
2023-02-15T18:16:48.879Z,15.60
2023-02-15T18:19:51.921Z,13.15
2023-02-15T18:22:56.469Z,14.63
2023-02-15T18:25:59.455Z,14.43
2023-02-15T18:29:02.470Z,14.98
2023-02-15T18:32:09.700Z,14.07
2023-02-15T18:35:16.850Z,16.35
2023-02-15T18:38:22.177Z,15.60
2023-02-15T18:41:25.403Z,15.95
2023-02-15T18:44:28.362Z,15.57
2023-02-15T18:47:31.366Z,14.98
2023-02-15T18:50:35.932Z,16.23
2023-02-15T18:53:40.171Z,15.20
2023-02-15T18:56:43.032Z,16.02
2023-02-15T18:59:45.864Z,14.75
2023-02-15T19:02:49.072Z,13.23
2023-02-15T19:05:51.900Z,13.75
2023-02-15T19:08:56.075Z,14.63
2023-02-15T19:12:00.154Z,14.82
2023-02-15T19:15:03.048Z,14.77
2023-02-15T19:18:06.435Z,13.20
2023-02-15T19:21:52.507Z,14.90
2023-02-15T19:24:59.792Z,13.18
2023-02-15T19:28:07.891Z,13.30
2023-02-15T19:31:12.767Z,13.82
2023-02-15T19:34:17.401Z,13.32
2023-02-15T19:37:26.217Z,13.85
2023-02-15T19:40:32.627Z,15.48
2023-02-15T19:43:36.525Z,13.68
2023-02-15T19:46:39.467Z,13.40
2023-02-15T19:49:42.351Z,13.65
2023-02-15T19:52:46.594Z,12.63
2023-02-15T19:55:52.036Z,14.20
2023-02-15T19:58:57.731Z,14.57
2023-02-15T20:02:00.981Z,15.10
2023-02-15T20:05:03.848Z,15.43
2023-02-15T20:08:08.950Z,15.95
2023-02-15T20:11:14.653Z,14.90
2023-02-15T20:14:18.063Z,14.45
2023-02-15T20:17:20.988Z,14.85
2023-02-15T20:20:30.060Z,16.10
2023-02-15T20:23:35.461Z,14.25
2023-02-15T20:26:39.845Z,15.82
2023-02-15T20:29:42.806Z,16.40
2023-02-15T20:32:45.932Z,15.43
2023-02-15T20:35:50.153Z,15.18
2023-02-15T20:38:53.109Z,15.68
2023-02-15T20:41:57.574Z,14.98
2023-02-15T20:45:00.349Z,16.92
2023-02-15T20:48:03.907Z,18.23
2023-02-15T20:51:07.521Z,16.40
2023-02-15T20:54:14.539Z,16.98
2023-02-15T20:57:18.751Z,17.40
2023-02-15T21:00:23.928Z,16.80
2023-02-15T21:03:31.050Z,18.13
2023-02-15T21:06:34.084Z,16.52
2023-02-15T21:09:36.921Z,15.82
2023-02-15T21:12:41.282Z,15.80
2023-02-15T21:15:44.218Z,18.85
2023-02-15T21:18:47.124Z,16.67
2023-02-15T21:21:51.958Z,17.38
2023-02-15T21:24:55.054Z,17.13
2023-02-15T21:27:59.334Z,15.43
2023-02-15T21:31:03.072Z,18.67
2023-02-15T21:34:06.249Z,15.73
2023-02-15T21:37:27.570Z,16.13
2023-02-15T21:40:33.016Z,18.17
2023-02-15T21:43:54.470Z,17.42
2023-02-15T21:47:15.010Z,17.95
2023-02-15T21:50:36.690Z,16.42
2023-02-15T21:53:42.618Z,18.42
2023-02-15T21:56:45.639Z,17.75
2023-02-15T21:59:49.831Z,16.88
2023-02-15T22:02:55.446Z,16.48
2023-02-15T22:05:58.370Z,18.98
2023-02-15T22:09:01.206Z,19.15
2023-02-15T22:12:04.170Z,26.15
2023-02-15T22:15:19.072Z,23.88
2023-02-15T22:18:24.282Z,21.70
2023-02-15T22:21:29.737Z,22.92
2023-02-15T22:24:32.698Z,18.83
2023-02-15T22:27:39.992Z,20.33
2023-02-15T22:30:45.891Z,21.38
2023-02-15T22:33:49.751Z,21.65
2023-02-15T22:36:52.776Z,24.35
2023-02-15T22:39:55.734Z,37.95
2023-02-15T22:43:01.793Z,19.88
2023-02-15T22:46:08.421Z,28.92
2023-02-15T22:49:14.578Z,23.00
2023-02-15T22:52:18.865Z,19.48
2023-02-15T22:55:25.577Z,23.73
2023-02-15T22:58:30.140Z,18.80
2023-02-15T23:01:36.969Z,21.73
2023-02-15T23:04:39.965Z,22.73
2023-02-15T23:07:42.781Z,20.70
2023-02-15T23:10:47.438Z,17.67
2023-02-15T23:13:50.589Z,16.85
2023-02-15T23:16:55.581Z,22.02
2023-02-15T23:19:58.444Z,17.40
2023-02-15T23:23:01.304Z,18.27
2023-02-15T23:26:04.986Z,21.48
2023-02-15T23:29:15.071Z,21.80
2023-02-15T23:32:20.390Z,17.63
2023-02-15T23:35:23.320Z,16.23
2023-02-15T23:38:28.618Z,15.05
2023-02-15T23:41:30.613Z,16.13
2023-02-15T23:44:33.966Z,16.15
2023-02-15T23:47:55.668Z,17.73
2023-02-15T23:50:59.345Z,19.98
2023-02-15T23:54:02.159Z,16.25
2023-02-15T23:57:05.243Z,18.23
